Time;durP1;ratioP1;P1;durP2;ratioP2;P2;SDS_P1;SDS_P2;PMS_P1;PMS_P2;Temp;Humidity;BMP_temperature;BMP_pressure;BME280_temperature;BME280_humidity;BME280_pressure;Samples;Min_cycle;Max_cycle;Signal;HPM_P1;HPM_P2
2022/08/23 00:00:10;;;;;;;12.88;7.90;;;23.00;99.90;;;23.58;64.67;101298.94;4824130;29;20133;-73
2022/08/23 00:02:42;;;;;;;13.43;7.20;;;23.00;99.90;;;23.64;64.17;101301.34;4824276;29;20074;-73
2022/08/23 00:05:12;;;;;;;13.38;7.28;;;23.00;99.90;;;23.52;63.89;101280.34;4824299;29;20484;-73
2022/08/23 00:07:44;;;;;;;20.13;8.37;;;23.10;99.90;;;23.71;63.98;101296.50;4824270;29;20111;-73
2022/08/23 00:10:16;;;;;;;10.68;7.13;;;23.10;99.90;;;23.61;65.97;101295.22;4824527;29;20098;-73
2022/08/23 00:12:46;;;;;;;11.00;7.13;;;23.00;99.90;;;23.47;66.73;101293.22;4824174;29;20054;-73
2022/08/23 00:15:19;;;;;;;11.77;6.72;;;23.00;99.90;;;23.55;63.77;101295.53;4824227;29;20458;-73
2022/08/23 00:17:48;;;;;;;12.13;7.30;;;23.00;99.90;;;23.57;64.30;101291.81;4823994;29;20046;-73
2022/08/23 00:20:19;;;;;;;12.30;7.15;;;23.00;99.90;;;23.60;64.20;101290.75;4824565;29;20043;-73
2022/08/23 00:22:48;;;;;;;11.60;6.32;;;23.00;99.90;;;23.60;64.23;101288.06;4827565;29;20058;-74
2022/08/23 00:25:17;;;;;;;9.73;6.47;;;23.00;99.90;;;23.57;64.00;101289.13;4827462;29;20405;-72
2022/08/23 00:27:46;;;;;;;13.60;6.43;;;23.00;99.90;;;23.60;63.04;101283.53;4827491;29;20046;-73
2022/08/23 00:30:17;;;;;;;15.35;6.75;;;23.00;99.90;;;23.72;60.01;101288.31;4827689;29;20053;-72
2022/08/23 00:32:46;;;;;;;13.38;6.40;;;23.10;99.90;;;23.65;61.71;101292.31;4827106;29;20074;-73
2022/08/23 00:35:16;;;;;;;11.15;6.13;;;23.10;99.90;;;23.67;56.83;101290.41;4827261;29;20416;-72
2022/08/23 00:37:56;;;;;;;10.40;6.53;;;23.10;99.90;;;23.68;61.67;101296.66;4826080;29;20050;-73
2022/08/23 00:40:46;;;;;;;10.82;6.40;;;23.10;99.90;;;23.64;62.35;101286.94;4827257;29;20058;-74
2022/08/23 00:49:09;;;;;;;13.40;6.55;;;23.20;99.90;;;23.20;55.47;101184.78;4825879;29;20058;-76
2022/08/23 00:51:46;;;;;;;14.15;6.93;;;23.20;99.90;;;23.72;61.98;101260.41;4826824;29;20405;-75
2022/08/23 00:54:23;;;;;;;12.43;6.80;;;23.20;99.90;;;23.88;63.94;101275.75;4825851;29;20150;-75
2022/08/23 00:56:53;;;;;;;11.30;6.68;;;23.30;99.90;;;23.86;64.18;101280.38;4826983;29;20054;-76
2022/08/23 00:59:23;;;;;;;8.80;6.15;;;23.30;99.90;;;23.81;64.86;101278.88;4826441;29;20046;-77
2022/08/23 01:01:53;;;;;;;12.73;6.22;;;23.20;99.90;;;23.73;58.99;101276.53;4826544;29;20054;-75
2022/08/23 01:04:22;;;;;;;9.95;6.50;;;23.10;99.90;;;23.69;59.98;101282.22;4826419;29;20077;-76
2022/08/23 01:06:58;;;;;;;13.32;6.95;;;23.10;99.90;;;23.59;57.71;101278.22;4826500;29;20511;-77
2022/08/23 01:09:26;;;;;;;16.63;6.65;;;23.00;99.90;;;23.53;58.22;101271.31;4825562;29;20101;-77
2022/08/23 01:12:03;;;;;;;16.20;6.70;;;23.00;99.90;;;23.46;56.51;101279.81;4825348;29;20054;-76
2022/08/23 01:14:36;;;;;;;12.55;6.45;;;22.80;99.90;;;23.35;56.17;101280.34;4825478;29;20054;-76
2022/08/23 01:17:12;;;;;;;13.77;6.40;;;22.80;99.90;;;23.35;56.25;101280.34;4825402;29;20091;-76
2022/08/23 01:19:47;;;;;;;13.45;6.35;;;22.70;99.90;;;23.46;56.63;101274.41;4826671;29;20054;-76
2022/08/23 01:22:20;;;;;;;15.52;6.40;;;22.80;99.90;;;23.49;56.55;101279.63;4826369;29;20107;-76
2022/08/23 01:24:51;;;;;;;12.60;6.43;;;22.80;99.90;;;23.35;56.28;101256.03;4825361;29;20065;-76
2022/08/23 01:27:41;;;;;;;12.83;7.17;;;22.90;99.90;;;23.60;56.38;101278.13;4825347;29;20413;-76
2022/08/23 01:30:18;;;;;;;13.73;6.90;;;23.00;99.90;;;23.66;55.77;101288.63;4824826;29;20308;-75
2022/08/23 01:32:52;;;;;;;13.75;6.25;;;23.10;99.90;;;23.76;55.80;101278.22;4825118;29;20050;-76
2022/08/23 01:35:25;;;;;;;14.15;7.03;;;23.20;99.90;;;23.89;56.78;101277.50;4825160;29;20524;-76
2022/08/23 01:37:59;;;;;;;13.05;7.25;;;23.30;99.90;;;23.98;56.07;101274.28;4826406;29;20103;-75
2022/08/23 01:40:31;;;;;;;13.93;7.45;;;23.40;99.90;;;23.92;56.38;101268.34;4824961;29;20110;-76
2022/08/23 01:43:01;;;;;;;16.48;7.75;;;23.50;99.90;;;23.91;55.62;101259.38;4825021;29;20106;-76
2022/08/23 01:45:31;;;;;;;;;;;23.50;99.90;;;24.01;55.04;101279.56;4825392;29;20047;-76
2022/08/23 01:48:01;;;;;;;18.65;8.15;;;23.60;99.90;;;24.10;55.00;101276.38;4825167;29;19924;-76
2022/08/23 01:50:31;;;;;;;18.15;8.77;;;23.60;99.90;;;24.09;54.71;101269.25;4824963;29;20141;-76
2022/08/23 01:52:59;;;;;;;18.45;8.80;;;23.60;99.90;;;24.03;54.33;101261.47;4826004;29;20051;-77
2022/08/23 01:55:31;;;;;;;16.50;8.43;;;23.60;99.90;;;23.61;55.05;101269.09;4824849;29;20137;-76
2022/08/23 01:58:01;;;;;;;;;;;23.20;99.90;;;23.28;55.50;101231.16;4825305;29;20108;-76
2022/08/23 02:00:34;;;;;;;14.82;7.57;;;23.00;99.90;;;23.45;55.70;101257.31;4824733;29;20019;-77
2022/08/23 02:03:04;;;;;;;17.27;8.00;;;22.90;99.90;;;23.18;56.43;101248.78;4824365;29;20054;-77
2022/08/23 02:05:36;;;;;;;14.00;7.75;;;22.70;99.90;;;22.84;57.12;101235.19;4824734;29;20107;-76
2022/08/23 02:10:52;;;;;;;16.90;7.63;;;22.30;99.90;;;22.72;57.85;101240.31;4823797;29;20424;-76
2022/08/23 02:13:20;;;;;;;13.27;7.15;;;22.20;99.90;;;22.79;57.98;101255.25;4824501;29;20063;-76
2022/08/23 02:15:50;;;;;;;20.70;7.90;;;22.20;99.90;;;22.75;58.15;101243.75;4826024;29;20057;-76
2022/08/23 02:18:21;;;;;;;17.23;8.73;;;22.20;99.90;;;22.93;57.97;101258.16;4824479;29;20520;-76
2022/08/23 02:20:53;;;;;;;21.33;9.07;;;22.40;99.90;;;23.04;57.67;101255.78;4824465;29;20093;-76
2022/08/23 02:23:22;;;;;;;20.67;9.13;;;22.50;99.90;;;23.16;56.99;101249.78;4824096;29;20107;-76
2022/08/23 02:25:53;;;;;;;20.55;9.18;;;22.60;99.90;;;23.39;56.66;101273.84;4824340;29;20062;-76
2022/08/23 02:28:24;;;;;;;18.60;9.18;;;22.80;99.90;;;23.52;56.24;101263.28;4824371;29;20398;-76
2022/08/23 02:30:52;;;;;;;;;;;23.00;99.90;;;23.72;55.82;101276.63;4824770;29;20531;-76
2022/08/23 02:33:21;;;;;;;18.95;8.88;;;23.20;99.90;;;23.82;55.58;101267.09;4825408;29;20375;-76
2022/08/23 02:35:49;;;;;;;15.90;8.45;;;23.30;99.90;;;23.93;55.45;101270.97;4824218;29;20102;-76
2022/08/23 02:38:18;;;;;;;18.88;9.27;;;23.40;99.90;;;23.98;54.92;101271.59;4825159;29;20102;-75
2022/08/23 02:40:48;;;;;;;17.20;8.98;;;23.50;99.90;;;24.06;54.84;101268.53;4824202;29;20046;-76
2022/08/23 02:43:32;;;;;;;18.70;10.27;;;23.60;99.90;;;24.12;54.64;101271.75;4823391;29;20093;-76
2022/08/23 02:46:06;;;;;;;16.52;9.05;;;23.60;99.90;;;24.13;55.25;101268.13;4824067;29;20065;-76
2022/08/23 02:48:36;;;;;;;14.15;7.53;;;23.70;99.90;;;24.17;57.13;101279.63;4824192;29;20573;-76
2022/08/23 02:51:08;;;;;;;13.68;8.05;;;23.60;99.90;;;24.20;57.35;101279.47;4823734;29;20054;-76
2022/08/23 02:53:37;;;;;;;16.70;8.80;;;23.70;99.90;;;23.97;57.78;101245.53;4823855;29;20053;-76
2022/08/23 02:56:10;;;;;;;15.57;9.02;;;23.70;99.90;;;23.64;57.40;101198.69;4825221;29;20045;-77
2022/08/23 02:58:51;;;;;;;19.30;10.10;;;23.70;99.90;;;24.21;55.78;101278.53;4823913;29;20054;-76
2022/08/23 03:01:27;;;;;;;11.30;7.10;;;23.60;99.90;;;24.17;60.59;101283.22;4823762;29;20141;-77
2022/08/23 03:04:00;;;;;;;12.85;7.72;;;23.70;99.90;;;24.13;63.03;101280.75;4823661;29;20068;-77
2022/08/23 03:06:31;;;;;;;17.58;8.00;;;23.60;99.90;;;24.16;63.69;101277.88;4823541;29;20065;-76
2022/08/23 03:08:59;;;;;;;13.35;8.30;;;23.60;99.90;;;24.16;62.58;101288.69;4824987;29;20053;-77
2022/08/23 03:11:28;;;;;;;14.00;7.93;;;23.60;99.90;;;24.04;63.73;101290.22;4823421;29;20050;-77
2022/08/23 03:13:59;;;;;;;13.70;8.02;;;23.50;99.90;;;24.04;64.38;101292.94;4823543;29;20089;-77
2022/08/23 03:16:29;;;;;;;13.60;7.68;;;23.50;99.90;;;23.92;66.37;101285.47;4823669;29;20417;-77
2022/08/23 03:18:57;;;;;;;13.70;7.70;;;23.50;99.90;;;23.84;67.41;101276.88;4824903;29;20042;-76
2022/08/23 03:21:26;;;;;;;12.57;7.70;;;23.30;99.90;;;23.80;68.10;101293.31;4824831;29;20057;-77
2022/08/23 03:23:55;;;;;;;18.33;9.02;;;23.20;99.90;;;23.66;67.76;101282.34;4823506;29;20054;-77
2022/08/23 03:26:24;;;;;;;12.30;7.95;;;23.20;99.90;;;23.54;68.19;101273.03;4823469;29;20064;-76
2022/08/23 03:28:53;;;;;;;15.52;7.90;;;23.10;99.90;;;23.68;67.46;101281.31;4824674;29;20102;-77
2022/08/23 03:31:28;;;;;;;14.23;7.97;;;23.10;99.90;;;23.70;67.53;101287.53;4823474;29;20060;-76
2022/08/23 03:34:06;;;;;;;14.70;8.63;;;23.10;99.90;;;23.65;65.66;101281.50;4823402;29;20064;-77
2022/08/23 03:36:35;;;;;;;13.27;7.53;;;23.10;99.90;;;23.49;68.69;101277.81;4823316;29;20183;-76
2022/08/23 03:39:06;;;;;;;11.98;7.20;;;23.00;99.90;;;23.26;68.60;101278.09;4823300;29;20054;-76
2022/08/23 03:41:34;;;;;;;14.02;8.00;;;22.70;99.90;;;23.18;65.75;101280.28;4823334;29;20057;-76
2022/08/23 03:44:03;;;;;;;13.30;7.68;;;22.60;99.90;;;23.07;66.63;101283.50;4823307;29;20050;-76
2022/08/23 03:46:37;;;;;;;12.73;7.82;;;22.50;99.90;;;23.09;66.84;101287.00;4823329;29;20500;-77
2022/08/23 03:49:05;;;;;;;;;;;22.50;99.90;;;23.03;68.01;101289.16;4824952;29;20047;-77
2022/08/23 03:51:54;;;;;;;11.00;7.38;;;22.50;99.90;;;23.04;68.64;101294.47;4823865;29;19924;-76
2022/08/23 03:54:23;;;;;;;11.52;7.65;;;22.50;99.90;;;22.96;68.66;101301.16;4824967;29;20111;-76
2022/08/23 03:56:59;;;;;;;10.55;7.22;;;22.40;99.90;;;22.93;69.17;101295.94;4826862;29;20049;-76
2022/08/23 03:59:32;;;;;;;13.65;7.80;;;22.40;99.90;;;22.96;67.70;101301.16;4826847;29;20061;-77
2022/08/23 04:02:05;;;;;;;13.07;8.50;;;22.40;99.90;;;23.03;67.28;101302.63;4826728;29;20050;-77
2022/08/23 04:04:33;;;;;;;;;;;22.50;99.90;;;23.09;66.69;101302.34;4826587;29;20055;-75
2022/08/23 04:07:25;;;;;;;14.40;7.85;;;22.60;99.90;;;23.01;67.28;101294.63;4822632;29;20321;-79
2022/08/23 04:09:56;;;;;;;10.70;8.13;;;22.50;99.90;;;23.04;66.80;101294.47;4826568;29;20561;-81
2022/08/23 04:12:27;;;;;;;14.70;8.38;;;22.50;99.90;;;23.11;66.92;101305.84;4826460;29;20149;-83
2022/08/23 04:14:56;;;;;;;13.20;8.80;;;22.60;99.90;;;23.17;65.96;101300.16;4827337;29;20485;-85
2022/08/23 04:17:27;;;;;;;14.18;8.30;;;22.60;99.90;;;23.09;66.80;101307.75;4826410;29;20046;-83
2022/08/23 04:20:00;;;;;;;9.98;7.50;;;22.60;99.90;;;23.06;68.53;101314.16;4827402;29;20093;-80
2022/08/23 04:22:29;;;;;;;17.42;8.60;;;22.50;99.90;;;23.03;67.90;101319.72;4826343;29;20426;-79
2022/08/23 04:24:58;;;;;;;15.65;9.10;;;22.50;99.90;;;23.10;65.81;101314.88;4826101;29;20057;-78
2022/08/23 04:27:26;;;;;;;16.58;8.07;;;22.50;99.90;;;22.98;67.73;101316.34;4826407;29;20057;-78
2022/08/23 04:29:55;;;;;;;14.68;8.05;;;22.50;99.90;;;22.91;69.12;101308.63;4826189;29;20080;-80
2022/08/23 04:32:26;;;;;;;14.00;8.35;;;22.40;99.90;;;22.97;69.98;101308.34;4826397;29;20058;-80
2022/08/23 04:34:57;;;;;;;11.18;8.60;;;22.40;99.90;;;22.96;70.02;101303.88;4826100;29;20450;-79
2022/08/23 04:37:26;;;;;;;11.35;7.25;;;22.40;99.90;;;22.88;70.61;101298.84;4825939;29;20057;-79
2022/08/23 04:42:43;;;;;;;13.25;7.88;;;22.30;99.90;;;22.63;70.33;101290.16;4825941;29;20303;-78
2022/08/23 04:45:13;;;;;;;12.40;7.55;;;22.10;99.90;;;22.47;71.26;101290.94;4825911;29;20050;-79
2022/08/23 04:47:46;;;;;;;12.02;7.93;;;22.00;99.90;;;22.52;71.14;101299.69;4825903;29;20115;-79
2022/08/23 04:50:16;;;;;;;13.05;8.07;;;21.90;99.90;;;22.54;69.00;101304.06;4825871;29;20050;-79
2022/08/23 04:53:11;;;;;;;12.15;8.00;;;21.90;99.90;;;22.42;70.67;101297.44;4825787;29;20057;-79
2022/08/23 04:55:51;;;;;;;16.45;8.10;;;22.00;99.90;;;22.58;70.19;101323.69;4825718;29;20054;-80
2022/08/23 04:58:20;;;;;;;16.75;10.38;;;22.00;99.90;;;22.61;68.08;101320.88;4825636;29;20408;-79
2022/08/23 05:00:50;;;;;;;13.57;9.70;;;22.00;99.90;;;22.62;67.22;101322.63;4825657;29;20110;-79
2022/08/23 05:03:26;;;;;;;11.88;7.85;;;22.10;99.90;;;22.49;68.81;101306.13;4825338;29;20066;-79
2022/08/23 05:05:57;;;;;;;13.68;8.10;;;22.10;99.90;;;22.50;69.67;101318.63;4824587;29;20054;-79
2022/08/23 05:08:32;;;;;;;15.40;8.48;;;22.10;99.90;;;22.47;69.97;101324.19;4824992;29;20070;-79
2022/08/23 05:11:01;;;;;;;14.00;9.68;;;21.90;99.90;;;22.06;69.85;101247.91;4825322;29;20077;-79
2022/08/23 05:13:30;;;;;;;23.10;12.35;;;21.90;99.90;;;21.88;67.55;101227.19;4825357;29;20042;-78
2022/08/23 05:16:04;;;;;;;23.95;11.63;;;21.90;99.90;;;22.50;67.72;101329.44;4825460;29;20060;-79
2022/08/23 05:18:37;;;;;;;17.90;10.90;;;21.90;99.90;;;22.58;69.32;101329.09;4825388;29;20592;-78
2022/08/23 05:21:06;;;;;;;18.77;10.63;;;22.00;99.90;;;22.65;68.89;101334.13;4826372;29;20433;-78
2022/08/23 05:23:35;;;;;;;18.55;10.57;;;22.00;99.90;;;22.57;68.07;101328.22;4825154;29;20497;-78
2022/08/23 05:26:08;;;;;;;16.20;8.95;;;22.00;99.90;;;22.61;69.31;101332.53;4825211;29;20506;-79
2022/08/23 05:28:43;;;;;;;13.82;9.82;;;22.10;99.90;;;22.61;68.81;101337.06;4825342;29;20046;-78
2022/08/23 05:31:19;;;;;;;10.52;8.10;;;22.10;99.90;;;22.67;71.20;101325.97;4825077;29;20125;-79
2022/08/23 05:33:55;;;;;;;14.73;10.77;;;22.20;99.90;;;22.86;69.70;101345.75;4825086;29;20054;-79
2022/08/23 05:36:37;;;;;;;19.27;13.07;;;22.30;99.90;;;22.98;68.64;101337.94;4825098;29;20084;-80
2022/08/23 05:39:16;;;;;;;18.73;10.18;;;22.40;99.90;;;22.46;68.58;101236.13;4826352;29;20470;-79
2022/08/23 05:42:06;;;;;;;12.85;9.43;;;22.60;99.90;;;23.30;70.87;101341.78;4825057;29;20058;-80
2022/08/23 05:44:36;;;;;;;15.65;10.02;;;22.80;99.90;;;23.38;69.35;101353.13;4826089;29;20087;-80
2022/08/23 05:47:08;;;;;;;18.73;11.70;;;22.90;99.90;;;23.31;68.33;101327.34;4825145;29;20068;-80
2022/08/23 05:49:44;;;;;;;12.57;9.70;;;22.90;99.90;;;23.62;70.59;101357.28;4824918;29;20136;-80
2022/08/23 05:52:14;;;;;;;13.40;10.32;;;23.10;99.90;;;23.75;70.81;101354.84;4824925;29;20054;-79
2022/08/23 05:54:44;;;;;;;20.35;12.73;;;23.30;99.90;;;24.00;69.56;101366.16;4824725;29;20106;-80
2022/08/23 05:57:41;;;;;;;23.58;12.00;;;23.50;99.90;;;24.30;67.52;101367.25;4821295;29;20473;-81
2022/08/23 06:00:13;;;;;;;21.65;13.30;;;23.80;99.90;;;24.32;65.09;101353.66;4824603;29;20077;-81
2022/08/23 06:02:50;;;;;;;22.48;13.32;;;23.90;99.90;;;24.54;63.40;101365.97;4824510;29;20064;-80
2022/08/23 06:05:22;;;;;;;16.90;12.43;;;24.10;99.90;;;24.65;63.70;101343.72;4824684;29;20402;-81
2022/08/23 06:07:51;;;;;;;16.45;12.48;;;24.20;99.90;;;24.87;63.30;101357.84;4839895;29;20065;-80
2022/08/23 06:10:22;;;;;;;17.75;11.75;;;24.30;99.90;;;25.00;63.28;101357.06;4824620;29;20046;-80
2022/08/23 06:12:57;;;;;;;19.02;12.30;;;24.40;99.90;;;25.06;64.36;101342.31;4824455;29;20481;-80
2022/08/23 06:15:25;;;;;;;21.85;13.23;;;24.60;99.90;;;25.20;64.11;101361.38;4825643;29;20046;-80
2022/08/23 06:17:54;;;;;;;24.55;13.40;;;24.60;99.90;;;25.49;64.43;101371.41;4824118;29;20059;-80
2022/08/23 06:20:23;;;;;;;19.55;12.50;;;24.90;99.90;;;25.74;62.99;101358.19;4824206;29;20058;-81
2022/08/23 06:23:01;;;;;;;18.27;13.23;;;25.20;99.90;;;25.87;63.12;101364.63;4824465;29;20058;-81
2022/08/23 06:25:31;;;;;;;21.20;13.38;;;25.30;99.90;;;26.05;63.57;101357.22;4824174;29;20061;-81
2022/08/23 06:28:08;;;;;;;21.15;12.98;;;25.50;99.90;;;26.33;62.93;101373.56;4839442;29;20046;-81
2022/08/23 06:30:38;;;;;;;19.37;12.40;;;25.80;99.90;;;26.48;62.32;101374.47;4824316;29;20514;-81
2022/08/23 06:33:18;;;;;;;20.73;11.00;;;25.90;99.90;;;26.53;62.43;101370.50;4824136;29;20303;-81
2022/08/23 06:35:49;;;;;;;16.85;11.40;;;26.00;99.90;;;26.67;62.18;101366.94;4825240;29;20133;-81
2022/08/23 06:38:25;;;;;;;15.93;11.57;;;26.20;99.90;;;26.84;62.08;101374.91;4824176;29;20054;-81
2022/08/23 06:41:12;;;;;;;17.02;10.82;;;26.30;99.90;;;26.95;62.06;101375.09;4824057;29;20054;-77
2022/08/23 06:44:00;;;;;;;14.57;10.38;;;26.40;99.90;;;27.06;62.05;101374.41;4825359;29;20053;-80
2022/08/23 06:46:48;;;;;;;16.70;10.68;;;26.60;99.90;;;27.17;62.27;101371.84;4825080;29;20137;-79
2022/08/23 06:49:17;;;;;;;16.25;10.10;;;26.70;99.90;;;27.11;62.00;101364.97;4823867;29;20054;-79
2022/08/23 06:51:50;;;;;;;12.05;8.52;;;26.80;99.90;;;27.25;61.77;101381.25;4823998;29;20140;-81
2022/08/23 06:54:33;;;;;;;17.38;9.70;;;26.80;99.90;;;27.30;61.79;101381.81;4823605;29;20167;-84
2022/08/23 06:57:23;;;;;;;14.13;9.25;;;26.80;99.90;;;27.46;62.45;101387.16;4823940;29;20455;-83
2022/08/23 07:00:17;;;;;;;15.93;8.82;;;27.00;99.90;;;26.81;63.08;101274.63;4810023;29;20111;-81
2022/08/23 07:03:08;;;;;;;11.18;8.30;;;27.00;99.90;;;27.57;61.26;101393.63;4825043;29;20401;-83
2022/08/23 07:05:55;;;;;;;11.63;8.00;;;27.10;99.90;;;27.66;60.90;101393.00;4825136;29;20524;-84
2022/08/23 07:08:30;;;;;;;12.77;7.38;;;27.20;99.90;;;27.63;61.44;101397.78;4823839;29;20054;-82
2022/08/23 07:10:59;;;;;;;11.35;5.70;;;27.20;99.90;;;27.61;59.84;101399.72;4823697;29;20565;-84
2022/08/23 07:13:27;;;;;;;11.93;5.30;;;27.20;99.90;;;27.55;58.83;101394.69;4824548;29;20054;-82
2022/08/23 07:15:58;;;;;;;8.00;4.70;;;27.10;99.90;;;27.56;58.68;101391.00;4823583;29;20046;-81
2022/08/23 07:18:28;;;;;;;9.60;5.20;;;27.10;99.90;;;27.50;58.61;101405.00;4823591;29;20513;-80
2022/08/23 07:20:57;;;;;;;8.68;4.30;;;27.10;99.90;;;27.37;58.58;101399.50;4823499;29;20072;-82
2022/08/23 07:23:27;;;;;;;9.20;4.75;;;27.00;99.90;;;27.37;58.44;101402.22;4824794;29;20049;-82
2022/08/23 07:25:58;;;;;;;7.20;4.00;;;27.00;99.90;;;27.42;59.10;101400.09;4823586;29;20449;-83
2022/08/23 07:28:29;;;;;;;8.27;4.78;;;27.00;99.90;;;27.39;58.89;101396.69;4823207;29;20084;-80
2022/08/23 07:31:09;;;;;;;8.23;4.43;;;26.90;99.90;;;27.37;59.24;101404.94;4823434;29;20476;-77
2022/08/23 07:33:43;;;;;;;12.77;4.70;;;26.90;99.90;;;27.34;58.81;101396.09;4823543;29;20062;-76
2022/08/23 07:36:18;;;;;;;9.27;4.80;;;26.90;99.90;;;27.30;58.64;101400.84;4823313;29;20108;-77
2022/08/23 07:38:47;;;;;;;10.90;4.53;;;26.90;99.90;;;27.27;58.66;101406.50;4823449;29;20141;-74
2022/08/23 07:41:21;;;;;;;8.07;4.47;;;26.80;99.90;;;27.20;59.52;101382.50;4823234;29;20058;-75
2022/08/23 07:43:49;;;;;;;9.95;4.50;;;26.80;99.90;;;27.39;59.35;101411.13;4822979;29;20050;-74
2022/08/23 07:46:19;;;;;;;13.73;4.80;;;26.90;99.90;;;27.29;58.49;101392.81;4823221;29;20050;-75
2022/08/23 07:48:50;;;;;;;12.65;4.40;;;26.90;99.90;;;27.46;58.77;101412.50;4823339;29;20054;-74
2022/08/23 07:51:32;;;;;;;8.45;4.07;;;27.00;99.90;;;27.60;58.42;101426.03;4824257;29;20043;-74
2022/08/23 07:54:02;;;;;;;7.53;3.92;;;27.10;99.90;;;27.71;58.03;101419.00;4823367;29;20062;-74
2022/08/23 07:56:32;;;;;;;8.20;4.72;;;27.20;99.90;;;27.79;57.95;101424.81;4822906;29;20050;-78
2022/08/23 07:59:14;;;;;;;7.25;4.25;;;27.30;99.90;;;27.44;58.44;101354.66;4824125;29;20042;-78
2022/08/23 08:02:02;;;;;;;9.70;4.45;;;27.40;99.90;;;28.02;58.09;101418.72;4823183;29;20074;-80
2022/08/23 08:04:30;;;;;;;8.30;3.80;;;27.60;99.90;;;28.07;56.55;101438.31;4786914;30;20402;-78
2022/08/23 08:06:59;;;;;;;6.60;3.67;;;27.60;99.90;;;28.17;56.27;101442.16;4786584;30;20139;-79
2022/08/23 08:09:49;;;;;;;6.85;3.83;;;27.70;99.90;;;28.31;56.12;101445.69;4786800;30;20063;-78
2022/08/23 08:12:19;;;;;;;8.10;3.90;;;27.90;99.90;;;28.40;55.87;101449.63;4786612;30;20502;-77
2022/08/23 08:14:52;;;;;;;12.18;4.13;;;27.90;99.90;;;28.46;56.16;101449.19;4787008;30;20051;-77
2022/08/23 08:17:24;;;;;;;8.75;3.85;;;28.00;99.90;;;28.12;56.61;101387.19;4786662;29;20051;-78
2022/08/23 08:20:27;;;;;;;9.27;3.92;;;28.10;99.90;;;28.36;55.43;101448.97;4787832;29;20067;-78
2022/08/23 08:23:14;;;;;;;7.90;4.10;;;28.00;99.90;;;28.33;55.57;101449.19;4787682;30;20066;-78
2022/08/23 08:26:11;;;;;;;5.35;3.72;;;27.90;99.90;;;28.39;56.03;101458.78;4786654;30;20055;-78
2022/08/23 08:28:52;;;;;;;6.75;3.70;;;27.90;99.90;;;28.31;55.93;101461.16;4786660;30;20112;-78
2022/08/23 08:31:20;;;;;;;;;;;27.90;99.90;;;28.26;55.72;101461.47;4786970;29;20509;-78
2022/08/23 08:33:48;;;;;;;5.15;3.65;;;27.80;99.90;;;28.21;56.86;101447.31;4787736;29;19925;-77
2022/08/23 08:36:40;;;;;;;5.07;3.20;;;27.80;99.90;;;28.25;55.77;101458.84;4786376;30;20409;-78
2022/08/23 08:39:17;;;;;;;5.65;3.88;;;27.80;99.90;;;28.12;56.14;101458.81;4785144;30;20055;-77
2022/08/23 08:41:58;;;;;;;6.95;3.75;;;27.60;99.90;;;28.09;55.89;101453.56;4788703;29;20074;-78
2022/08/23 08:44:44;;;;;;;7.28;4.00;;;27.60;99.90;;;28.09;56.47;101455.41;4791080;29;20465;-77
2022/08/23 08:47:21;;;;;;;5.28;3.35;;;27.60;99.90;;;28.09;55.97;101455.41;4789719;29;20059;-78
2022/08/23 08:49:57;;;;;;;5.05;3.42;;;27.70;99.90;;;28.16;55.96;101462.22;4789837;30;20406;-77
2022/08/23 08:52:29;;;;;;;4.75;3.58;;;27.70;99.90;;;28.14;55.94;101465.03;4789835;30;20052;-78
2022/08/23 08:55:13;;;;;;;5.80;2.95;;;27.70;99.90;;;28.08;55.55;101470.00;4789684;30;20069;-78
2022/08/23 08:57:46;;;;;;;4.75;2.65;;;27.60;99.90;;;28.06;55.33;101458.34;4789745;30;20134;-78
2022/08/23 09:00:22;;;;;;;4.60;2.88;;;27.60;99.90;;;27.97;55.78;101451.69;4789698;30;20051;-77
2022/08/23 09:02:51;;;;;;;4.13;2.63;;;27.60;99.90;;;28.05;55.99;101468.34;4801147;29;20058;-77
2022/08/23 09:05:26;;;;;;;4.85;2.60;;;27.50;99.90;;;28.05;55.38;101472.97;4826907;29;20561;-77
2022/08/23 09:08:12;;;;;;;5.72;2.85;;;27.60;99.90;;;28.09;56.04;101469.03;4825372;29;20478;-78
2022/08/23 09:10:51;;;;;;;3.88;2.35;;;27.60;99.90;;;28.22;55.88;101478.97;4825548;29;20054;-78
2022/08/23 09:13:52;;;;;;;6.40;2.45;;;27.70;99.90;;;28.23;56.08;101466.25;4826704;29;20054;-77
2022/08/23 09:16:36;;;;;;;5.13;2.75;;;27.80;99.90;;;28.44;55.61;101478.38;4825348;29;20141;-78
2022/08/23 09:19:06;;;;;;;5.57;2.58;;;28.00;99.90;;;28.46;56.11;101479.16;4825465;29;20141;-77
2022/08/23 09:21:44;;;;;;;6.40;3.00;;;28.00;99.90;;;28.61;55.26;101478.13;4825172;29;20050;-77
2022/08/23 09:24:13;;;;;;;4.82;2.75;;;28.10;99.90;;;28.70;55.21;101473.88;4825383;29;20107;-77
2022/08/23 09:27:01;;;;;;;3.25;2.70;;;28.20;99.90;;;28.38;54.97;101408.91;4826258;29;20053;-77
2022/08/23 09:29:31;;;;;;;6.43;3.00;;;28.40;99.90;;;28.84;55.01;101477.38;4826492;29;20049;-77
2022/08/23 09:32:05;;;;;;;4.40;2.50;;;28.40;99.90;;;29.05;54.10;101483.16;4825140;29;20141;-78
2022/08/23 09:34:42;;;;;;;4.97;2.65;;;28.60;99.90;;;29.19;53.96;101464.84;4825059;29;20167;-78
2022/08/23 09:37:24;;;;;;;3.65;2.25;;;28.80;99.90;;;29.27;52.72;101476.09;4826357;29;20054;-78
2022/08/23 09:40:14;;;;;;;3.58;2.80;;;28.90;99.90;;;29.33;52.79;101470.19;4825059;29;20485;-77
2022/08/23 09:42:46;;;;;;;3.58;2.40;;;28.90;99.90;;;29.35;53.28;101478.25;4825041;29;20421;-78
2022/08/23 09:45:27;;;;;;;5.70;2.60;;;29.00;99.90;;;29.30;52.53;101464.97;4826260;29;20046;-79
2022/08/23 09:48:05;;;;;;;3.53;2.47;;;29.00;99.90;;;29.36;52.23;101472.69;4824934;29;20054;-79
2022/08/23 09:50:42;;;;;;;3.15;2.33;;;29.00;99.90;;;29.45;52.03;101468.41;4824761;29;20103;-79
2022/08/23 09:53:14;;;;;;;5.82;2.50;;;29.00;99.90;;;29.52;51.92;101477.03;4824515;29;20055;-78
2022/08/23 09:55:50;;;;;;;5.55;2.75;;;29.10;99.90;;;29.54;52.48;101473.19;4824696;29;20069;-79
2022/08/23 09:58:35;;;;;;;6.20;2.85;;;29.10;99.90;;;29.44;51.63;101477.59;4824804;29;20089;-78
2022/08/23 10:01:12;;;;;;;6.63;2.58;;;29.00;99.90;;;29.51;51.68;101478.88;4824685;29;20505;-78
2022/08/23 10:03:46;;;;;;;3.45;2.50;;;29.10;99.90;;;29.58;51.82;101476.59;4824543;29;20142;-79
2022/08/23 10:06:32;;;;;;;5.97;2.65;;;29.10;99.90;;;29.55;51.02;101468.59;4824717;29;20058;-80
2022/08/23 10:09:07;;;;;;;4.72;2.70;;;29.20;99.90;;;29.57;51.75;101466.63;4824647;29;20054;-79
2022/08/23 10:11:43;;;;;;;5.40;2.53;;;29.10;99.90;;;29.24;51.48;101404.56;4824610;29;20050;-79
2022/08/23 10:14:14;;;;;;;4.32;2.20;;;29.10;99.90;;;29.66;51.44;101460.50;4824576;29;20078;-78
2022/08/23 10:16:59;;;;;;;5.85;2.70;;;29.20;99.90;;;29.57;50.84;101469.38;4824524;29;20106;-79
2022/08/23 10:19:42;;;;;;;8.85;3.05;;;29.10;99.90;;;29.64;49.77;101459.75;4824426;29;20078;-79
2022/08/23 10:22:19;;;;;;;6.57;2.75;;;29.20;99.90;;;29.58;48.64;101462.94;4824325;29;20056;-77
2022/08/23 10:25:13;;;;;;;5.55;2.70;;;29.20;99.90;;;29.43;50.16;101454.03;4825061;29;20457;-78
2022/08/23 10:30:45;;;;;;;6.80;2.65;;;29.10;99.90;;;29.83;50.05;101454.72;4824342;29;20205;-78
2022/08/23 10:33:22;;;;;;;6.88;2.72;;;29.30;99.90;;;29.99;49.92;101466.19;4824537;29;20505;-78
2022/08/23 10:36:14;;;;;;;4.20;2.70;;;29.50;99.90;;;30.11;48.94;101466.13;4824203;29;20416;-78
2022/08/23 10:38:50;;;;;;;6.93;3.00;;;29.70;99.90;;;30.20;48.35;101459.97;4824188;29;20046;-79
2022/08/23 10:41:40;;;;;;;7.03;3.30;;;29.80;99.90;;;30.24;48.28;101471.50;4825453;29;20400;-78
2022/08/23 10:44:25;;;;;;;5.30;3.22;;;29.80;99.90;;;30.16;49.21;101473.97;4824178;29;20052;-78
2022/08/23 10:47:11;;;;;;;5.55;2.83;;;29.80;99.90;;;30.24;48.53;101463.31;4823994;29;20404;-79
2022/08/23 10:49:42;;;;;;;8.95;2.88;;;29.80;99.90;;;30.39;47.93;101467.63;4823992;29;20501;-78
2022/08/23 10:52:20;;;;;;;4.80;2.75;;;30.00;99.90;;;30.46;48.17;101449.81;4823689;29;20070;-78